CEB2590 RPMD-RPVB
Flight info
| Callsign | CEB2590 |
|---|---|
| Flight time | N/A |
| Altitude | 34000 |
| Route | JOFER3R JOFER W8 MCT W6A KADSO KADSO3P |
| Aircraft | A320/M-SDE3FGHIRWY/LB1 |
Departure
| Time | 2026-05-06 14:33 |
|---|---|
| Airport | Francisco Bangoy International Airport (RPMD) |
Arrival
| Time | N/A |
|---|---|
| Airport | Bacolod-Silay International Airport (RPVB) |
| Time | Latitude | Longitude | Altitude | Speed | Heading |
|---|---|---|---|---|---|
| 2026-05-06 14:03 | 7.12913 | 125.64503 | 101 ft | 0 kts | 320° |
| 2026-05-06 14:25 | 7.12910 | 125.64505 | 101 ft | 3 kts | 321° |
| 2026-05-06 14:25 | 7.12889 | 125.64521 | 101 ft | 4 kts | 331° |
| 2026-05-06 14:25 | 7.12864 | 125.64532 | 100 ft | 4 kts | 343° |
| 2026-05-06 14:26 | 7.12838 | 125.64537 | 100 ft | 4 kts | 1° |
| 2026-05-06 14:26 | 7.12813 | 125.64532 | 99 ft | 4 kts | 40° |
| 2026-05-06 14:26 | 7.12809 | 125.64528 | 100 ft | 0 kts | 50° |
| 2026-05-06 14:28 | 7.12831 | 125.64555 | 100 ft | 13 kts | 50° |
| 2026-05-06 14:28 | 7.12892 | 125.64626 | 101 ft | 13 kts | 49° |
| 2026-05-06 14:29 | 7.12948 | 125.64691 | 101 ft | 11 kts | 49° |
| 2026-05-06 14:29 | 7.12997 | 125.64748 | 101 ft | 10 kts | 49° |
| 2026-05-06 14:29 | 7.12996 | 125.64816 | 100 ft | 11 kts | 133° |
| 2026-05-06 14:29 | 7.12943 | 125.64862 | 102 ft | 10 kts | 139° |
| 2026-05-06 14:30 | 7.12881 | 125.64924 | 102 ft | 13 kts | 115° |
| 2026-05-06 14:30 | 7.12927 | 125.65010 | 101 ft | 20 kts | 49° |
| 2026-05-06 14:30 | 7.13023 | 125.65120 | 101 ft | 22 kts | 49° |
| 2026-05-06 14:30 | 7.13129 | 125.65243 | 100 ft | 25 kts | 49° |
| 2026-05-06 14:31 | 7.13245 | 125.65378 | 100 ft | 26 kts | 49° |
| 2026-05-06 14:31 | 7.13354 | 125.65498 | 100 ft | 14 kts | 26° |
| 2026-05-06 14:31 | 7.13445 | 125.65525 | 100 ft | 13 kts | 35° |
| 2026-05-06 14:31 | 7.13425 | 125.65575 | 100 ft | 10 kts | 189° |
| 2026-05-06 14:32 | 7.13390 | 125.65545 | 99 ft | 0 kts | 229° |
| 2026-05-06 14:32 | 7.13389 | 125.65545 | 99 ft | 0 kts | 229° |
| 2026-05-06 14:32 | 7.13313 | 125.65456 | 99 ft | 55 kts | 229° |
| 2026-05-06 14:32 | 7.12903 | 125.64981 | 102 ft | 121 kts | 229° |
| 2026-05-06 14:33 | 7.12237 | 125.64197 | 132 ft | 169 kts | 232° |
| 2026-05-06 14:33 | 7.11481 | 125.63315 | 835 ft | 165 kts | 230° |
| 2026-05-06 14:33 | 7.10786 | 125.62398 | 1489 ft | 165 kts | 254° |
| 2026-05-06 14:33 | 7.10821 | 125.61293 | 2052 ft | 162 kts | 298° |
| 2026-05-06 14:34 | 7.11563 | 125.60386 | 2377 ft | 178 kts | 322° |
| 2026-05-06 14:34 | 7.12551 | 125.59507 | 2672 ft | 202 kts | 321° |
| 2026-05-06 14:34 | 7.13666 | 125.58499 | 3024 ft | 227 kts | 321° |
| 2026-05-06 14:34 | 7.14898 | 125.57371 | 3452 ft | 251 kts | 320° |
| 2026-05-06 14:35 | 7.16222 | 125.56146 | 4181 ft | 262 kts | 320° |
| 2026-05-06 14:35 | 7.17555 | 125.54904 | 5095 ft | 266 kts | 319° |
| 2026-05-06 14:35 | 7.18919 | 125.53629 | 5991 ft | 270 kts | 319° |
| 2026-05-06 14:35 | 7.19851 | 125.52757 | 6577 ft | 272 kts | 319° |
| 2026-05-06 14:36 | 7.21703 | 125.51024 | 7651 ft | 277 kts | 319° |
| 2026-05-06 14:36 | 7.23129 | 125.49691 | 8436 ft | 282 kts | 319° |
| 2026-05-06 14:36 | 7.24583 | 125.48330 | 9217 ft | 288 kts | 319° |
| 2026-05-06 14:36 | 7.26060 | 125.46946 | 9972 ft | 293 kts | 319° |
| 2026-05-06 14:37 | 7.27595 | 125.45510 | 10365 ft | 312 kts | 319° |
| 2026-05-06 14:37 | 7.29247 | 125.43967 | 10621 ft | 334 kts | 319° |
| 2026-05-06 14:37 | 7.30979 | 125.42353 | 11152 ft | 343 kts | 319° |
| 2026-05-06 14:37 | 7.32756 | 125.40724 | 11810 ft | 347 kts | 323° |
| 2026-05-06 14:38 | 7.34779 | 125.39387 | 12474 ft | 348 kts | 335° |
| 2026-05-06 14:38 | 7.37041 | 125.38516 | 13135 ft | 349 kts | 346° |
| 2026-05-06 14:38 | 7.39394 | 125.37859 | 13789 ft | 353 kts | 346° |
| 2026-05-06 14:38 | 7.41770 | 125.37202 | 14373 ft | 355 kts | 346° |
| 2026-05-06 14:39 | 7.44164 | 125.36542 | 14926 ft | 359 kts | 347° |
| 2026-05-06 14:39 | 7.46582 | 125.35873 | 15468 ft | 362 kts | 346° |
| 2026-05-06 14:39 | 7.49024 | 125.35198 | 16002 ft | 366 kts | 346° |
| 2026-05-06 14:39 | 7.51498 | 125.34512 | 16535 ft | 370 kts | 346° |
| 2026-05-06 14:40 | 7.53997 | 125.33817 | 17085 ft | 374 kts | 346° |
| 2026-05-06 14:40 | 7.56517 | 125.33116 | 17627 ft | 377 kts | 346° |
| 2026-05-06 14:40 | 7.59055 | 125.32407 | 18169 ft | 380 kts | 346° |
| 2026-05-06 14:40 | 7.61613 | 125.31691 | 18649 ft | 383 kts | 346° |
| 2026-05-06 14:41 | 7.64197 | 125.30969 | 19119 ft | 386 kts | 346° |
| 2026-05-06 14:41 | 7.66796 | 125.30243 | 19582 ft | 389 kts | 346° |
| 2026-05-06 14:41 | 7.69414 | 125.29515 | 20044 ft | 392 kts | 346° |
| 2026-05-06 14:41 | 7.72021 | 125.28790 | 20496 ft | 395 kts | 346° |
| 2026-05-06 14:42 | 7.74711 | 125.28040 | 20966 ft | 397 kts | 346° |
| 2026-05-06 14:42 | 7.77348 | 125.27303 | 21374 ft | 400 kts | 346° |
| 2026-05-06 14:42 | 7.80041 | 125.26551 | 21805 ft | 403 kts | 346° |
| 2026-05-06 14:42 | 7.82759 | 125.25792 | 22252 ft | 406 kts | 346° |
| 2026-05-06 14:43 | 7.85488 | 125.25030 | 22695 ft | 409 kts | 346° |
| 2026-05-06 14:43 | 7.88238 | 125.24263 | 23116 ft | 411 kts | 346° |
| 2026-05-06 14:43 | 7.91008 | 125.23489 | 23530 ft | 414 kts | 346° |
| 2026-05-06 14:43 | 7.93793 | 125.22709 | 23895 ft | 416 kts | 346° |
| 2026-05-06 14:44 | 7.96569 | 125.21864 | 24226 ft | 419 kts | 340° |
| 2026-05-06 14:44 | 7.99233 | 125.20626 | 24554 ft | 423 kts | 334° |
| 2026-05-06 14:44 | 8.01854 | 125.19259 | 24887 ft | 425 kts | 334° |
| 2026-05-06 14:45 | 8.07140 | 125.16501 | 25562 ft | 430 kts | 334° |
| 2026-05-06 14:45 | 8.09809 | 125.15109 | 25859 ft | 433 kts | 334° |
| 2026-05-06 14:45 | 8.12500 | 125.13707 | 26184 ft | 436 kts | 334° |
| 2026-05-06 14:45 | 8.15201 | 125.12303 | 26502 ft | 438 kts | 334° |
| 2026-05-06 14:46 | 8.17918 | 125.10890 | 26814 ft | 440 kts | 334° |
| 2026-05-06 14:46 | 8.20645 | 125.09470 | 27126 ft | 442 kts | 333° |
| 2026-05-06 14:46 | 8.23384 | 125.08041 | 27429 ft | 445 kts | 333° |
| 2026-05-06 14:46 | 8.26139 | 125.06605 | 27736 ft | 447 kts | 333° |
| 2026-05-06 14:47 | 8.28908 | 125.05161 | 28042 ft | 449 kts | 333° |
| 2026-05-06 14:47 | 8.31690 | 125.03709 | 28350 ft | 451 kts | 333° |
| 2026-05-06 14:47 | 8.34486 | 125.02252 | 28638 ft | 454 kts | 333° |
| 2026-05-06 14:47 | 8.37300 | 125.00786 | 28928 ft | 456 kts | 333° |
| 2026-05-06 14:48 | 8.40120 | 124.99317 | 29210 ft | 458 kts | 334° |
| 2026-05-06 14:48 | 8.42961 | 124.97834 | 29471 ft | 460 kts | 333° |
| 2026-05-06 14:48 | 8.45811 | 124.96344 | 29728 ft | 463 kts | 333° |
| 2026-05-06 14:48 | 8.48676 | 124.94846 | 29988 ft | 465 kts | 333° |
| 2026-05-06 14:49 | 8.51553 | 124.93340 | 30203 ft | 467 kts | 333° |
| 2026-05-06 14:49 | 8.54439 | 124.91828 | 30435 ft | 468 kts | 333° |
| 2026-05-06 14:49 | 8.57336 | 124.90312 | 30655 ft | 470 kts | 333° |
| 2026-05-06 14:49 | 8.60250 | 124.88791 | 30868 ft | 472 kts | 333° |
| 2026-05-06 14:50 | 8.63172 | 124.87267 | 31091 ft | 473 kts | 333° |
| 2026-05-06 14:50 | 8.66098 | 124.85739 | 31353 ft | 473 kts | 333° |
| 2026-05-06 14:50 | 8.69020 | 124.84211 | 31672 ft | 473 kts | 333° |
| 2026-05-06 14:50 | 8.71937 | 124.82685 | 31973 ft | 472 kts | 333° |
| 2026-05-06 14:51 | 8.74858 | 124.81155 | 32256 ft | 473 kts | 333° |
| 2026-05-06 14:51 | 8.77774 | 124.79624 | 32564 ft | 472 kts | 333° |
| 2026-05-06 14:51 | 8.80691 | 124.78092 | 32880 ft | 472 kts | 333° |
| 2026-05-06 14:51 | 8.83600 | 124.76567 | 33212 ft | 471 kts | 333° |
| 2026-05-06 14:52 | 8.86467 | 124.75068 | 33559 ft | 470 kts | 333° |
| 2026-05-06 14:52 | 8.89371 | 124.73553 | 33842 ft | 471 kts | 333° |
| 2026-05-06 14:52 | 8.92269 | 124.72042 | 33898 ft | 465 kts | 333° |
| 2026-05-06 14:53 | 8.97980 | 124.69055 | 33908 ft | 460 kts | 332° |
| 2026-05-06 14:53 | 9.03648 | 124.66079 | 33906 ft | 459 kts | 332° |
| 2026-05-06 14:54 | 9.09315 | 124.63107 | 33906 ft | 458 kts | 333° |
| 2026-05-06 14:54 | 9.14974 | 124.60140 | 33904 ft | 458 kts | 333° |
| 2026-05-06 14:55 | 9.20632 | 124.57173 | 33896 ft | 458 kts | 333° |
| 2026-05-06 14:55 | 9.26296 | 124.54205 | 33899 ft | 458 kts | 333° |
| 2026-05-06 14:56 | 9.31949 | 124.51231 | 33897 ft | 458 kts | 332° |
| 2026-05-06 14:56 | 9.36687 | 124.48735 | 33905 ft | 458 kts | 332° |
| 2026-05-06 14:57 | 9.42310 | 124.45781 | 33900 ft | 458 kts | 332° |
| 2026-05-06 14:57 | 9.47972 | 124.42809 | 33896 ft | 458 kts | 332° |
| 2026-05-06 14:58 | 9.53632 | 124.39828 | 33900 ft | 458 kts | 332° |
| 2026-05-06 14:58 | 9.59292 | 124.36845 | 33902 ft | 458 kts | 332° |
| 2026-05-06 14:59 | 9.64945 | 124.33868 | 33904 ft | 458 kts | 332° |
| 2026-05-06 14:59 | 9.70608 | 124.30884 | 33905 ft | 459 kts | 332° |
| 2026-05-06 15:00 | 9.76267 | 124.27902 | 33906 ft | 458 kts | 332° |
| 2026-05-06 15:00 | 9.81929 | 124.24925 | 33910 ft | 458 kts | 332° |
| 2026-05-06 15:01 | 9.87591 | 124.21951 | 33910 ft | 458 kts | 332° |
| 2026-05-06 15:01 | 9.93254 | 124.18968 | 33908 ft | 458 kts | 332° |
| 2026-05-06 15:02 | 9.98912 | 124.15974 | 33909 ft | 458 kts | 332° |
| 2026-05-06 15:02 | 9.99824 | 124.15491 | 33912 ft | 458 kts | 332° |